createdAt,value
2018-05-24T00:01:45.168Z,101962.61
2018-05-24T00:06:47.756Z,101965.18
2018-05-24T00:11:50.621Z,101967.95
2018-05-24T00:16:54.011Z,101966.20
2018-05-24T00:21:56.496Z,101964.97
2018-05-24T00:26:58.992Z,101971.19
2018-05-24T00:32:01.529Z,101971.16
2018-05-24T00:37:04.040Z,101970.92
2018-05-24T00:42:06.565Z,101968.84
2018-05-24T00:47:09.082Z,101976.95
2018-05-24T00:52:11.578Z,101980.41
2018-05-24T00:57:14.108Z,101979.52
2018-05-24T01:02:16.645Z,101982.83
2018-05-24T01:07:19.282Z,101988.86
2018-05-24T01:12:21.820Z,101992.26
2018-05-24T01:17:25.016Z,101998.02
2018-05-24T01:22:27.491Z,102002.30
2018-05-24T01:27:30.001Z,102008.41
2018-05-24T01:32:32.492Z,102011.20
2018-05-24T01:37:47.954Z,102005.20
2018-05-24T01:42:50.509Z,102009.55
2018-05-24T01:47:53.020Z,102008.20
2018-05-24T01:52:55.647Z,102005.63
2018-05-24T01:57:58.099Z,101999.19
2018-05-24T02:03:00.598Z,101998.49
2018-05-24T02:08:03.116Z,102002.30
2018-05-24T02:13:05.619Z,102001.54
2018-05-24T02:18:08.105Z,101990.67
2018-05-24T02:23:10.657Z,101993.72
2018-05-24T02:28:13.504Z,101978.63
2018-05-24T02:33:16.040Z,101974.73
2018-05-24T02:38:18.830Z,101964.22
2018-05-24T02:43:21.407Z,101963.14
2018-05-24T02:48:23.967Z,101976.11
2018-05-24T02:53:26.489Z,101977.03
2018-05-24T03:03:37.572Z,101982.58
2018-05-24T03:08:40.051Z,101969.77
2018-05-24T03:13:44.784Z,101973.08
2018-05-24T03:18:47.529Z,101970.88
2018-05-24T03:23:50.067Z,101975.61
2018-05-24T03:28:52.596Z,101968.87
2018-05-24T03:33:55.479Z,101974.36
2018-05-24T03:38:57.996Z,101975.27
2018-05-24T03:44:00.573Z,101968.76
2018-05-24T03:49:03.159Z,101964.58
2018-05-24T03:54:05.629Z,101980.70
2018-05-24T04:15:28.059Z,101979.44
2018-05-24T04:20:30.541Z,101976.91
2018-05-24T04:25:33.031Z,101984.25
2018-05-24T04:30:35.565Z,101984.25
2018-05-24T04:35:38.057Z,101987.91
2018-05-24T04:40:40.562Z,101995.23
2018-05-24T04:45:43.082Z,102003.59
2018-05-24T04:50:45.604Z,102005.41
2018-05-24T04:55:48.220Z,102006.17
2018-05-24T05:00:50.862Z,102007.28
2018-05-24T05:05:53.399Z,102002.83
2018-05-24T05:10:55.905Z,102007.64
2018-05-24T05:15:58.416Z,102022.61
2018-05-24T05:26:28.289Z,102009.40
2018-05-24T05:31:30.860Z,102023.97
2018-05-24T05:36:33.652Z,102018.66
2018-05-24T05:41:36.277Z,102004.86
2018-05-24T05:46:38.782Z,102018.20
2018-05-24T05:51:41.297Z,102008.54
2018-05-24T05:56:43.912Z,102016.13
2018-05-24T06:01:46.707Z,102015.88
2018-05-24T06:06:49.194Z,102015.27
2018-05-24T06:11:51.737Z,102021.02
2018-05-24T06:16:54.248Z,102014.21
2018-05-24T06:21:56.836Z,101996.25
2018-05-24T06:26:59.300Z,101998.27
2018-05-24T06:32:01.790Z,101996.63
2018-05-24T06:37:04.294Z,101993.56
2018-05-24T06:42:06.844Z,102005.06
2018-05-24T06:47:09.352Z,102011.45
2018-05-24T06:52:11.864Z,102012.40
2018-05-24T06:57:14.405Z,102019.16
2018-05-24T07:02:16.915Z,102021.84
2018-05-24T07:07:19.425Z,102024.86
2018-05-24T07:12:21.941Z,102019.75
2018-05-24T07:17:25.297Z,102021.48
2018-05-24T07:22:27.783Z,102013.55
2018-05-24T07:27:30.254Z,102027.61
2018-05-24T07:32:33.918Z,102035.33
2018-05-24T07:37:36.414Z,102022.77
2018-05-24T07:42:38.899Z,102022.25
2018-05-24T07:47:41.416Z,102018.91
2018-05-24T07:52:44.939Z,102026.59
2018-05-24T07:57:47.563Z,102004.20
2018-05-24T08:02:50.107Z,102016.06
2018-05-24T08:07:52.615Z,102001.53
2018-05-24T08:12:55.117Z,101998.66
2018-05-24T08:17:57.588Z,102005.67
2018-05-24T08:23:00.081Z,102002.49
2018-05-24T08:28:02.600Z,101991.36
2018-05-24T08:33:05.089Z,101995.48
2018-05-24T08:38:07.584Z,101993.19
2018-05-24T08:43:10.070Z,101993.75
2018-05-24T08:48:12.632Z,101993.68
2018-05-24T08:53:15.227Z,101987.41
2018-05-24T08:58:17.719Z,101993.11
2018-05-24T09:03:20.264Z,101994.59
2018-05-24T09:08:22.847Z,101996.34
2018-05-24T09:13:25.366Z,101982.75
2018-05-24T09:18:27.860Z,101985.09
2018-05-24T09:23:30.332Z,101971.96
2018-05-24T09:28:32.847Z,101972.98
2018-05-24T09:33:35.339Z,101978.39
2018-05-24T09:38:37.834Z,101967.39
2018-05-24T09:43:40.337Z,101958.78
2018-05-24T09:48:42.903Z,101961.00
2018-05-24T09:53:45.495Z,101969.22
2018-05-24T09:58:48.023Z,101960.70
2018-05-24T10:03:50.562Z,101950.61
2018-05-24T10:08:53.095Z,101951.17
2018-05-24T10:13:55.717Z,101938.97
2018-05-24T10:18:58.239Z,101946.52
2018-05-24T10:24:00.696Z,101945.31
2018-05-24T10:29:03.306Z,101921.95
2018-05-24T10:34:05.811Z,101926.65
2018-05-24T10:39:08.588Z,101923.22
2018-05-24T10:44:11.080Z,101923.98
2018-05-24T10:49:13.595Z,101923.33
2018-05-24T10:54:16.168Z,101909.39
2018-05-24T10:59:18.709Z,101908.50
2018-05-24T11:04:21.320Z,101906.70
2018-05-24T11:09:23.970Z,101902.98
2018-05-24T11:14:26.493Z,101899.97
2018-05-24T11:19:29.107Z,101895.70
2018-05-24T11:24:31.622Z,101891.05
2018-05-24T11:29:34.114Z,101875.67
2018-05-24T11:34:36.651Z,101879.84
2018-05-24T11:39:41.406Z,101874.13
2018-05-24T11:44:43.821Z,101864.91
2018-05-24T11:49:46.331Z,101856.23
2018-05-24T11:54:48.891Z,101861.86
2018-05-24T11:59:51.549Z,101850.53
2018-05-24T12:04:54.020Z,101841.16
2018-05-24T12:09:56.643Z,101834.91
2018-05-24T12:14:59.283Z,101825.31
2018-05-24T12:20:01.808Z,101818.14
2018-05-24T12:25:09.881Z,101815.36
2018-05-24T12:30:12.659Z,101815.66
2018-05-24T12:35:15.385Z,101806.33
2018-05-24T12:40:17.825Z,101822.98
2018-05-24T12:45:20.525Z,101802.67
2018-05-24T12:50:23.018Z,101798.96
2018-05-24T12:55:25.569Z,101787.31
2018-05-24T13:00:28.088Z,101783.58
2018-05-24T13:05:30.648Z,101774.91
2018-05-24T13:10:33.143Z,101769.57
2018-05-24T13:15:35.622Z,101761.44
2018-05-24T13:20:38.108Z,101748.40
2018-05-24T13:25:40.995Z,101744.55
2018-05-24T13:30:43.489Z,101746.71
2018-05-24T13:35:46.015Z,101735.36
2018-05-24T13:40:48.984Z,101727.05
2018-05-24T13:45:51.869Z,101731.13
2018-05-24T13:50:54.664Z,101725.98
2018-05-24T13:55:57.949Z,101723.38
2018-05-24T14:01:00.457Z,101710.89
2018-05-24T14:06:02.965Z,101716.95
2018-05-24T14:11:05.466Z,101711.96
2018-05-24T14:16:07.919Z,101718.63
2018-05-24T14:21:10.418Z,101703.22
2018-05-24T14:26:12.935Z,101694.47
2018-05-24T14:31:15.421Z,101698.80
2018-05-24T14:36:18.091Z,101696.59
2018-05-24T14:41:21.291Z,101704.59
2018-05-24T14:46:23.871Z,101694.77
2018-05-24T14:51:26.576Z,101694.61
2018-05-24T14:56:29.102Z,101675.19
2018-05-24T15:01:31.613Z,101677.06
2018-05-24T15:06:34.133Z,101672.52
2018-05-24T15:11:37.385Z,101673.87
2018-05-24T15:16:39.899Z,101658.22
2018-05-24T15:21:42.398Z,101671.20
2018-05-24T15:26:44.901Z,101667.95
2018-05-24T15:31:48.080Z,101661.80
2018-05-24T15:36:50.585Z,101655.11
2018-05-24T15:41:53.480Z,101651.03
2018-05-24T15:46:56.256Z,101649.96
2018-05-24T15:51:58.848Z,101642.81
2018-05-24T15:57:01.349Z,101640.16
2018-05-24T16:02:03.860Z,101645.11
2018-05-24T16:07:06.357Z,101648.47
2018-05-24T16:12:08.850Z,101639.12
2018-05-24T16:17:11.349Z,101650.10
2018-05-24T16:22:13.823Z,101652.80
2018-05-24T16:27:16.336Z,101656.94
2018-05-24T16:32:18.859Z,101655.64
2018-05-24T16:37:21.408Z,101660.09
2018-05-24T16:42:23.972Z,101652.50
2018-05-24T16:47:26.524Z,101656.92
2018-05-24T16:52:29.065Z,101653.94
2018-05-24T16:57:31.562Z,101651.08
2018-05-24T17:02:34.044Z,101654.79
2018-05-24T17:07:37.095Z,101654.95
2018-05-24T17:12:39.746Z,101653.25
2018-05-24T17:17:42.170Z,101651.42
2018-05-24T17:22:44.677Z,101656.31
2018-05-24T17:27:47.173Z,101657.06
2018-05-24T17:32:49.756Z,101656.19
2018-05-24T17:37:52.654Z,101658.81
2018-05-24T17:42:55.833Z,101648.84
2018-05-24T17:47:58.528Z,101657.16
2018-05-24T17:53:02.252Z,101678.86
2018-05-24T17:58:04.847Z,101674.53
2018-05-24T18:03:07.330Z,101676.73
2018-05-24T18:08:09.814Z,101680.77
2018-05-24T18:13:12.367Z,101677.10
2018-05-24T18:18:14.884Z,101680.49
2018-05-24T18:23:17.809Z,101687.00
2018-05-24T18:28:22.204Z,101690.77
2018-05-24T18:33:24.728Z,101687.78
2018-05-24T18:38:27.357Z,101679.09
2018-05-24T18:43:31.091Z,101677.70
2018-05-24T18:48:56.303Z,101684.29
2018-05-24T18:54:00.104Z,101689.44
2018-05-24T18:59:03.126Z,101692.02
2018-05-24T19:04:10.108Z,101692.55
2018-05-24T19:09:14.750Z,101703.63
2018-05-24T19:14:17.267Z,101706.89
2018-05-24T19:19:20.044Z,101709.47
2018-05-24T19:24:24.931Z,101715.59
2018-05-24T19:29:29.348Z,101719.53
2018-05-24T19:34:33.646Z,101714.95
2018-05-24T19:39:36.435Z,101717.52
2018-05-24T19:44:42.362Z,101718.92
2018-05-24T19:49:48.518Z,101726.26
2018-05-24T19:54:52.146Z,101732.59
2018-05-24T19:59:54.858Z,101732.61
2018-05-24T20:04:59.871Z,101735.23
2018-05-24T20:10:02.444Z,101738.45
2018-05-24T20:15:05.069Z,101740.45
2018-05-24T20:20:07.623Z,101742.22
2018-05-24T20:25:10.054Z,101758.43
2018-05-24T20:30:12.546Z,101756.20
2018-05-24T20:35:15.072Z,101755.98
2018-05-24T20:40:17.609Z,101759.67
2018-05-24T20:45:20.133Z,101760.23
2018-05-24T20:50:22.687Z,101768.58
2018-05-24T20:55:26.975Z,101772.44
2018-05-24T21:00:30.008Z,101771.02
2018-05-24T21:05:34.290Z,101769.57
2018-05-24T21:10:36.800Z,101766.16
2018-05-24T21:15:39.846Z,101767.12
2018-05-24T21:20:42.463Z,101758.84
2018-05-24T21:25:45.701Z,101755.78
2018-05-24T21:30:48.907Z,101755.34
2018-05-24T21:35:51.824Z,101756.11
2018-05-24T21:40:56.536Z,101755.29
2018-05-24T21:45:59.090Z,101766.47
2018-05-24T21:51:01.619Z,101764.53
2018-05-24T21:56:04.359Z,101775.77
2018-05-24T22:01:06.960Z,101774.77
2018-05-24T22:06:09.498Z,101780.28
2018-05-24T22:11:11.973Z,101772.39
2018-05-24T22:16:14.519Z,101776.41
2018-05-24T22:21:16.986Z,101777.62
2018-05-24T22:26:19.551Z,101773.98
2018-05-24T22:31:22.073Z,101775.45
2018-05-24T22:36:24.598Z,101781.83
2018-05-24T22:41:27.107Z,101781.98
2018-05-24T22:46:29.637Z,101781.55
2018-05-24T22:51:32.139Z,101786.70
2018-05-24T22:56:34.676Z,101786.38
2018-05-24T23:01:37.231Z,101791.98
2018-05-24T23:06:39.750Z,101788.41
2018-05-24T23:11:42.249Z,101785.52
2018-05-24T23:16:44.755Z,101783.98
2018-05-24T23:21:47.329Z,101778.92
2018-05-24T23:26:49.847Z,101788.22
2018-05-24T23:31:52.453Z,101786.19
2018-05-24T23:36:54.958Z,101776.90
2018-05-24T23:41:57.536Z,101787.88
2018-05-24T23:47:00.130Z,101790.46
2018-05-24T23:52:02.664Z,101790.88
2018-05-24T23:57:05.209Z,101792.34
